La Suprema — IBIL — position and weather

sailwx.info

Track history (hours):
 
Tides and Currents Weather Stations Pressure Air Temp Water Temp Dewpoint Dewpoint Depression Visibility Wind Speed Wind Dir Waves Ship Positions

La Suprema

Last reported at 2014-Jul-26 10:33 UTC. Time now 2014-Jul-26 11:08 UTC.
Position N 39°20' E 012°29'.

Length 211 m; draft 7.4 m.

Type: Passenger vessel. MMSI: 247083700.

Date/timePositionNaut miles runAvg speedWind from/ knotsBaromVisibWave heightAir tempDewpointWater temp
2014-Jul-26 10:33N 39°20' E 012°29'12324.4
2014-Jul-26 05:32N 41°05' E 011°04'5524.3
2014-Jul-26 03:16N 41°51' E 010°24'1924.6
2014-Jul-26 02:29N 42°06' E 010°09'2224.2
2014-Jul-26 01:33N 42°26' E 009°55'3424.4
2014-Jul-26 00:10N 42°58' E 009°39'1424.0
2014-Jul-25 23:33N 43°11' E 009°31'2424.5
2014-Jul-25 22:34N 43°34' E 009°19'2424.4
2014-Jul-25 21:34N 43°57' E 009°07'2524.7
2014-Jul-25 20:33N 44°21' E 008°58'4 3.4
2014-Jul-25 19:18N 44°25' E 008°55'0 0.0
2014-Jul-25 15:33N 44°25' E 008°55'9 9.3
2014-Jul-25 14:33N 44°16' E 009°01'2121.4
2014-Jul-25 13:33N 43°56' E 009°11'2121.5
2014-Jul-25 12:33N 43°36' E 009°21'2221.6
2014-Jul-25 11:33N 43°16' E 009°32'32621.7
2014-Jul-24 20:33N 38°34' E 013°08'2222.0
2014-Jul-24 19:33N 38°15' E 013°23'7 7.2
2014-Jul-24 18:33N 38°08' E 013°22'0 0.0
2014-Jul-24 17:33N 38°08' E 013°22'0 0.0
2014-Jul-24 16:33N 38°08' E 013°22'0 0.0
2014-Jul-24 15:33N 38°08' E 013°22'3 3.1
2014-Jul-24 14:33N 38°10' E 013°24'2120.7
2014-Jul-24 13:33N 38°28' E 013°10'25622.7
2014-Jul-24 02:17N 42°05' E 010°12'1824.6
2014-Jul-24 01:33N 42°20' E 009°59'2424.4
2014-Jul-24 00:34N 42°42' E 009°46'2424.1
2014-Jul-23 23:33N 43°05' E 009°35'2424.6
2014-Jul-23 22:34N 43°28' E 009°25'2524.6
2014-Jul-23 21:34N 43°52' E 009°14'2424.4
2014-Jul-23 20:33N 44°14' E 009°01'1110.5
2014-Jul-23 19:30N 44°25' E 008°55'0 0.0
2014-Jul-23 17:23N 44°25' E 008°55'0 0.0
2014-Jul-23 16:04N 44°25' E 008°55'0 0.0
2014-Jul-23 15:28N 44°25' E 008°55'1 1.3
2014-Jul-23 14:33N 44°24' E 008°56'1717.6
2014-Jul-23 13:33N 44°09' E 009°08'2121.2
2014-Jul-23 12:33N 43°50' E 009°23'2121.2
2014-Jul-23 11:33N 43°32' E 009°37'2121.3
2014-Jul-23 10:33N 43°14' E 009°53'2120.9
2014-Jul-23 09:33N 42°54' E 010°00'10821.6
2014-Jul-23 04:33N 41°19' E 011°13'17924.3
2014-Jul-22 21:10N 38°41' E 013°02'1424.0
2014-Jul-22 20:33N 38°29' E 013°12'2323.0
2014-Jul-22 19:34N 38°08' E 013°25'2 2.5
2014-Jul-22 18:33N 38°08' E 013°22'0 0.0
2014-Jul-22 17:33N 38°08' E 013°22'0 0.0
2014-Jul-22 16:33N 38°08' E 013°22'0 0.0
2014-Jul-22 15:33N 38°08' E 013°22'2 2.4
2014-Jul-22 14:33N 38°09' E 013°24'2423.7
2014-Jul-22 13:33N 38°30' E 013°09'33722.5
2014-Jul-21 22:33N 43°22' E 009°28'2121.2
2014-Jul-21 21:33N 43°42' E 009°17'2121.1
2014-Jul-21 20:33N 44°02' E 009°06'520.8
2014-Jul-21 20:18N 44°06' E 009°03'1520.8
2014-Jul-21 19:33N 44°21' E 008°57'4 1.2
2014-Jul-21 16:21N 44°25' E 008°55'0 0.0
2014-Jul-21 15:33N 44°25' E 008°55'1312.7
2014-Jul-21 14:34N 44°13' E 009°03'2222.3
2014-Jul-21 13:33N 43°52' E 009°14'2121.3
2014-Jul-21 12:34N 43°32' E 009°24'29821.3
2014-Jul-20 22:33N 39°13' E 012°39'2422.1
2014-Jul-20 21:29N 38°52' E 012°54'2122.0
2014-Jul-20 20:33N 38°34' E 013°07'2222.3
2014-Jul-20 19:33N 38°15' E 013°22'8 7.6
2014-Jul-20 18:33N 38°08' E 013°22'0 0.0
2014-Jul-20 17:30N 38°08' E 013°22'0 0.0
2014-Jul-20 16:32N 38°08' E 013°22'0 0.0
2014-Jul-20 15:32N 38°08' E 013°22'3 3.0
2014-Jul-20 14:34N 38°10' E 013°24'2020.2
2014-Jul-20 13:33N 38°28' E 013°12'2121.2
2014-Jul-20 12:34N 38°46' E 012°57'2221.5
2014-Jul-20 11:33N 39°04' E 012°42'2221.7
2014-Jul-20 10:33N 39°23' E 012°28'2621.6
2014-Jul-20 09:20N 39°45' E 012°09'6221.6
2014-Jul-20 06:27N 40°38' E 011°26'6823.7
2014-Jul-20 03:34N 41°35' E 010°37'2524.5
2014-Jul-20 02:33N 41°56' E 010°19'2424.0
2014-Jul-20 01:34N 42°15' E 010°00'2423.9
2014-Jul-20 00:33N 42°38' E 009°49'2424.2
2014-Jul-19 23:34N 42°60' E 009°36'2424.0
2014-Jul-19 22:33N 43°23' E 009°26'2524.7
2014-Jul-19 21:34N 43°46' E 009°15'2524.6
2014-Jul-19 20:34N 44°09' E 009°04'1716.6
2014-Jul-19 19:33N 44°25' E 008°55'0 0.0
2014-Jul-19 18:33N 44°25' E 008°55'0 0.0
2014-Jul-19 17:33N 44°25' E 008°55'0 0.0
2014-Jul-19 16:33N 44°25' E 008°55'0 0.0
2014-Jul-19 15:33N 44°25' E 008°55'4 4.3
2014-Jul-19 14:33N 44°21' E 008°58'2423.8
2014-Jul-19 13:33N 44°01' E 009°16'2524.7
2014-Jul-19 12:34N 43°39' E 009°32'2424.4
2014-Jul-19 11:34N 43°18' E 009°50'2424.2
2014-Jul-19 10:34N 42°55' E 010°00'2723.9
2014-Jul-19 09:25N 42°31' E 010°18'2421.4
2014-Jul-19 08:18N 42°11' E 010°35'10421.3
2014-Jul-19 03:25N 40°39' E 011°40'8821.3
2014-Jul-18 23:16N 39°21' E 012°34'5821.5
2014-Jul-18 20:33N 38°30' E 013°10'2221.7
2014-Jul-18 19:33N 38°12' E 013°25'5 4.7
2014-Jul-18 18:33N 38°08' E 013°22'0 0.0
2014-Jul-18 17:33N 38°08' E 013°22'0 0.0
2014-Jul-18 16:32N 38°08' E 013°22'0 0.0
2014-Jul-18 15:31N 38°08' E 013°22'3 2.8
2014-Jul-18 14:34N 38°10' E 013°24'2121.0
2014-Jul-18 13:33N 38°29' E 013°12'2321.7
2014-Jul-18 12:30N 38°48' E 012°56'2821.8
2014-Jul-18 11:12N 39°11' E 012°36'13622.2
2014-Jul-18 05:05N 41°07' E 011°02'8824.8
2014-Jul-18 01:33N 42°21' E 009°58'2424.6
2014-Jul-18 00:34N 42°43' E 009°45'2424.3
2014-Jul-17 23:33N 43°06' E 009°35'2524.8
2014-Jul-17 22:34N 43°29' E 009°23'2524.8
2014-Jul-17 21:34N 43°53' E 009°13'2424.4
2014-Jul-17 20:34N 44°16' E 009°00'10 9.0
2014-Jul-17 19:29N 44°25' E 008°55'0 0.0
2014-Jul-17 18:22N 44°25' E 008°55'0 0.0
2014-Jul-17 16:31N 44°25' E 008°55'0 0.0
2014-Jul-17 15:33N 44°25' E 008°55'5 5.2
2014-Jul-17 14:33N 44°20' E 008°59'2424.2
2014-Jul-17 13:34N 43°59' E 009°16'2424.4
2014-Jul-17 12:34N 43°39' E 009°33'2424.4
2014-Jul-17 11:34N 43°17' E 009°50'2424.0
2014-Jul-17 10:33N 42°55' E 010°02'3223.3
2014-Jul-17 09:10N 42°26' E 010°23'4024.2
2014-Jul-17 07:30N 41°51' E 010°50'2424.5
2014-Jul-17 06:30N 41°30' E 011°05'19321.4
2014-Jul-16 21:29N 38°39' E 013°03'2021.2
2014-Jul-16 20:33N 38°22' E 013°16'1515.5
2014-Jul-16 19:33N 38°08' E 013°22'0 0.5
2014-Jul-16 18:33N 38°08' E 013°22'0 0.0
2014-Jul-16 17:33N 38°08' E 013°22'0 0.0
2014-Jul-16 16:33N 38°08' E 013°22'0 0.0
2014-Jul-16 15:34N 38°08' E 013°22'0 0.0
2014-Jul-16 14:34N 38°08' E 013°22'3 2.9
2014-Jul-16 13:34N 38°10' E 013°24'2121.0
2014-Jul-16 12:34N 38°28' E 013°11'  
Track history (hours):
 
Tides and Currents Weather Stations Pressure Air Temp Water Temp Dewpoint Dewpoint Depression Visibility Wind Speed Wind Dir Waves Ship Positions

La Suprema

Last reported at 2014-Jul-26 10:33 UTC. Time now 2014-Jul-26 11:08 UTC.
Position N 39°20' E 012°29'.

Length 211 m; draft 7.4 m.

Type: Passenger vessel. MMSI: 247083700.

Date/timePositionNaut miles runAvg speedWind from/ knotsBaromVisibWave heightAir tempDewpointWater temp
2014-Jul-26 10:33N 39°20' E 012°29'12324.4
2014-Jul-26 05:32N 41°05' E 011°04'5524.3
2014-Jul-26 03:16N 41°51' E 010°24'1924.6
2014-Jul-26 02:29N 42°06' E 010°09'2224.2
2014-Jul-26 01:33N 42°26' E 009°55'3424.4
2014-Jul-26 00:10N 42°58' E 009°39'1424.0
2014-Jul-25 23:33N 43°11' E 009°31'2424.5
2014-Jul-25 22:34N 43°34' E 009°19'2424.4
2014-Jul-25 21:34N 43°57' E 009°07'2524.7
2014-Jul-25 20:33N 44°21' E 008°58'4 3.4
2014-Jul-25 19:18N 44°25' E 008°55'0 0.0
2014-Jul-25 15:33N 44°25' E 008°55'9 9.3
2014-Jul-25 14:33N 44°16' E 009°01'2121.4
2014-Jul-25 13:33N 43°56' E 009°11'2121.5
2014-Jul-25 12:33N 43°36' E 009°21'2221.6
2014-Jul-25 11:33N 43°16' E 009°32'32621.7
2014-Jul-24 20:33N 38°34' E 013°08'2222.0
2014-Jul-24 19:33N 38°15' E 013°23'7 7.2
2014-Jul-24 18:33N 38°08' E 013°22'0 0.0
2014-Jul-24 17:33N 38°08' E 013°22'0 0.0
2014-Jul-24 16:33N 38°08' E 013°22'0 0.0
2014-Jul-24 15:33N 38°08' E 013°22'3 3.1
2014-Jul-24 14:33N 38°10' E 013°24'2120.7
2014-Jul-24 13:33N 38°28' E 013°10'25622.7
2014-Jul-24 02:17N 42°05' E 010°12'1824.6
2014-Jul-24 01:33N 42°20' E 009°59'2424.4
2014-Jul-24 00:34N 42°42' E 009°46'2424.1
2014-Jul-23 23:33N 43°05' E 009°35'2424.6
2014-Jul-23 22:34N 43°28' E 009°25'2524.6
2014-Jul-23 21:34N 43°52' E 009°14'2424.4
2014-Jul-23 20:33N 44°14' E 009°01'1110.5
2014-Jul-23 19:30N 44°25' E 008°55'0 0.0
2014-Jul-23 17:23N 44°25' E 008°55'0 0.0
2014-Jul-23 16:04N 44°25' E 008°55'0 0.0
2014-Jul-23 15:28N 44°25' E 008°55'1 1.3
2014-Jul-23 14:33N 44°24' E 008°56'1717.6
2014-Jul-23 13:33N 44°09' E 009°08'2121.2
2014-Jul-23 12:33N 43°50' E 009°23'2121.2
2014-Jul-23 11:33N 43°32' E 009°37'2121.3
2014-Jul-23 10:33N 43°14' E 009°53'2120.9
2014-Jul-23 09:33N 42°54' E 010°00'10821.6
2014-Jul-23 04:33N 41°19' E 011°13'17924.3
2014-Jul-22 21:10N 38°41' E 013°02'1424.0
2014-Jul-22 20:33N 38°29' E 013°12'2323.0
2014-Jul-22 19:34N 38°08' E 013°25'2 2.5
2014-Jul-22 18:33N 38°08' E 013°22'0 0.0
2014-Jul-22 17:33N 38°08' E 013°22'0 0.0
2014-Jul-22 16:33N 38°08' E 013°22'0 0.0
2014-Jul-22 15:33N 38°08' E 013°22'2 2.4
2014-Jul-22 14:33N 38°09' E 013°24'2423.7
2014-Jul-22 13:33N 38°30' E 013°09'33722.5
2014-Jul-21 22:33N 43°22' E 009°28'2121.2
2014-Jul-21 21:33N 43°42' E 009°17'2121.1
2014-Jul-21 20:33N 44°02' E 009°06'520.8
2014-Jul-21 20:18N 44°06' E 009°03'1520.8
2014-Jul-21 19:33N 44°21' E 008°57'4 1.2
2014-Jul-21 16:21N 44°25' E 008°55'0 0.0
2014-Jul-21 15:33N 44°25' E 008°55'1312.7
2014-Jul-21 14:34N 44°13' E 009°03'2222.3
2014-Jul-21 13:33N 43°52' E 009°14'2121.3
2014-Jul-21 12:34N 43°32' E 009°24'29821.3
2014-Jul-20 22:33N 39°13' E 012°39'2422.1
2014-Jul-20 21:29N 38°52' E 012°54'2122.0
2014-Jul-20 20:33N 38°34' E 013°07'2222.3
2014-Jul-20 19:33N 38°15' E 013°22'8 7.6
2014-Jul-20 18:33N 38°08' E 013°22'0 0.0
2014-Jul-20 17:30N 38°08' E 013°22'0 0.0
2014-Jul-20 16:32N 38°08' E 013°22'0 0.0
2014-Jul-20 15:32N 38°08' E 013°22'3 3.0
2014-Jul-20 14:34N 38°10' E 013°24'2020.2
2014-Jul-20 13:33N 38°28' E 013°12'2121.2
2014-Jul-20 12:34N 38°46' E 012°57'2221.5
2014-Jul-20 11:33N 39°04' E 012°42'2221.7
2014-Jul-20 10:33N 39°23' E 012°28'2621.6
2014-Jul-20 09:20N 39°45' E 012°09'6221.6
2014-Jul-20 06:27N 40°38' E 011°26'6823.7
2014-Jul-20 03:34N 41°35' E 010°37'2524.5
2014-Jul-20 02:33N 41°56' E 010°19'2424.0
2014-Jul-20 01:34N 42°15' E 010°00'2423.9
2014-Jul-20 00:33N 42°38' E 009°49'2424.2
2014-Jul-19 23:34N 42°60' E 009°36'2424.0
2014-Jul-19 22:33N 43°23' E 009°26'2524.7
2014-Jul-19 21:34N 43°46' E 009°15'2524.6
2014-Jul-19 20:34N 44°09' E 009°04'1716.6
2014-Jul-19 19:33N 44°25' E 008°55'0 0.0
2014-Jul-19 18:33N 44°25' E 008°55'0 0.0
2014-Jul-19 17:33N 44°25' E 008°55'0 0.0
2014-Jul-19 16:33N 44°25' E 008°55'0 0.0
2014-Jul-19 15:33N 44°25' E 008°55'4 4.3
2014-Jul-19 14:33N 44°21' E 008°58'2423.8
2014-Jul-19 13:33N 44°01' E 009°16'2524.7
2014-Jul-19 12:34N 43°39' E 009°32'2424.4
2014-Jul-19 11:34N 43°18' E 009°50'2424.2
2014-Jul-19 10:34N 42°55' E 010°00'2723.9
2014-Jul-19 09:25N 42°31' E 010°18'2421.4
2014-Jul-19 08:18N 42°11' E 010°35'10421.3
2014-Jul-19 03:25N 40°39' E 011°40'8821.3
2014-Jul-18 23:16N 39°21' E 012°34'5821.5
2014-Jul-18 20:33N 38°30' E 013°10'2221.7
2014-Jul-18 19:33N 38°12' E 013°25'5 4.7
2014-Jul-18 18:33N 38°08' E 013°22'0 0.0
2014-Jul-18 17:33N 38°08' E 013°22'0 0.0
2014-Jul-18 16:32N 38°08' E 013°22'0 0.0
2014-Jul-18 15:31N 38°08' E 013°22'3 2.8
2014-Jul-18 14:34N 38°10' E 013°24'2121.0
2014-Jul-18 13:33N 38°29' E 013°12'2321.7
2014-Jul-18 12:30N 38°48' E 012°56'2821.8
2014-Jul-18 11:12N 39°11' E 012°36'13622.2
2014-Jul-18 05:05N 41°07' E 011°02'8824.8
2014-Jul-18 01:33N 42°21' E 009°58'2424.6
2014-Jul-18 00:34N 42°43' E 009°45'2424.3
2014-Jul-17 23:33N 43°06' E 009°35'2524.8
2014-Jul-17 22:34N 43°29' E 009°23'2524.8
2014-Jul-17 21:34N 43°53' E 009°13'2424.4
2014-Jul-17 20:34N 44°16' E 009°00'10 9.0
2014-Jul-17 19:29N 44°25' E 008°55'0 0.0
2014-Jul-17 18:22N 44°25' E 008°55'0 0.0
2014-Jul-17 16:31N 44°25' E 008°55'0 0.0
2014-Jul-17 15:33N 44°25' E 008°55'5 5.2
2014-Jul-17 14:33N 44°20' E 008°59'2424.2
2014-Jul-17 13:34N 43°59' E 009°16'2424.4
2014-Jul-17 12:34N 43°39' E 009°33'2424.4
2014-Jul-17 11:34N 43°17' E 009°50'2424.0
2014-Jul-17 10:33N 42°55' E 010°02'3223.3
2014-Jul-17 09:10N 42°26' E 010°23'4024.2
2014-Jul-17 07:30N 41°51' E 010°50'2424.5
2014-Jul-17 06:30N 41°30' E 011°05'19321.4
2014-Jul-16 21:29N 38°39' E 013°03'2021.2
2014-Jul-16 20:33N 38°22' E 013°16'1515.5
2014-Jul-16 19:33N 38°08' E 013°22'0 0.5
2014-Jul-16 18:33N 38°08' E 013°22'0 0.0
2014-Jul-16 17:33N 38°08' E 013°22'0 0.0
2014-Jul-16 16:33N 38°08' E 013°22'0 0.0
2014-Jul-16 15:34N 38°08' E 013°22'0 0.0
2014-Jul-16 14:34N 38°08' E 013°22'3 2.9
2014-Jul-16 13:34N 38°10' E 013°24'2121.0
2014-Jul-16 12:34N 38°28' E 013°11'  

Dump ship's entire track history